Time;durP1;ratioP1;P1;durP2;ratioP2;P2;SDS_P1;SDS_P2;PMS_P1;PMS_P2;Temp;Humidity;BMP_temperature;BMP_pressure;BME280_temperature;BME280_humidity;BME280_pressure;Samples;Min_cycle;Max_cycle;Signal;HPM_P1;HPM_P2
2023/02/12 00:01:19;;;;;;;6.57;2.70;;;;;;;;;;5015076;28;20049;-72
2023/02/12 00:03:46;;;;;;;7.63;3.08;;;;;;;;;;5024275;28;20076;-73
2023/02/12 00:06:12;;;;;;;6.40;3.10;;;;;;;;;;5016815;28;20478;-73
2023/02/12 00:08:38;;;;;;;8.07;3.15;;;;;;;;;;5013854;28;20073;-73
2023/02/12 00:11:15;;;;;;;7.95;3.47;;;;;;;;;;5018247;28;20034;-72
2023/02/12 00:13:41;;;;;;;6.57;2.85;;;;;;;;;;5019952;28;20038;-73
2023/02/12 00:16:15;;;;;;;9.95;2.90;;;;;;;;;;5013976;28;20038;-73
2023/02/12 00:18:41;;;;;;;7.35;2.88;;;;;;;;;;5021543;28;20037;-72
2023/02/12 00:21:09;;;;;;;9.00;3.22;;;;;;;;;;5015004;28;20034;-72
2023/02/12 00:23:36;;;;;;;10.75;3.25;;;;;;;;;;5017382;28;20116;-72
2023/02/12 00:26:10;;;;;;;8.48;3.10;;;;;;;;;;5024856;28;20079;-73
2023/02/12 00:28:36;;;;;;;9.95;3.33;;;;;;;;;;5028812;28;20073;-72
2023/02/12 00:31:06;;;;;;;10.25;2.92;;;;;;;;;;5014118;28;20061;-72
2023/02/12 00:33:32;;;;;;;7.50;3.30;;;;;;;;;;5020728;28;20060;-72
2023/02/12 00:35:57;;;;;;;9.38;3.70;;;;;;;;;;5027033;28;20061;-73
2023/02/12 00:38:23;;;;;;;11.27;3.55;;;;;;;;;;5025522;28;20048;-72
2023/02/12 00:40:48;;;;;;;7.50;3.28;;;;;;;;;;5022793;28;20030;-73
2023/02/12 00:43:14;;;;;;;12.50;3.42;;;;;;;;;;5026068;28;20033;-73
2023/02/12 00:45:39;;;;;;;6.03;2.95;;;;;;;;;;5014779;28;20041;-73
2023/02/12 00:48:05;;;;;;;8.95;3.28;;;;;;;;;;5015577;28;20387;-73
2023/02/12 00:50:30;;;;;;;7.95;3.03;;;;;;;;;;5020129;28;20410;-73
2023/02/12 00:52:55;;;;;;;6.68;3.10;;;;;;;;;;5031303;28;20417;-73
2023/02/12 00:55:21;;;;;;;6.32;3.28;;;;;;;;;;5019246;28;20026;-72
2023/02/12 00:57:46;;;;;;;8.20;3.47;;;;;;;;;;5030911;28;20497;-73
2023/02/12 01:00:13;;;;;;;7.95;4.10;;;;;;;;;;5022760;28;20065;-72
2023/02/12 01:02:39;;;;;;;7.40;3.60;;;;;;;;;;5023553;28;20045;-74
2023/02/12 01:05:04;;;;;;;10.63;3.92;;;;;;;;;;5019314;28;20065;-73
2023/02/12 01:07:30;;;;;;;5.82;3.10;;;;;;;;;;5021606;28;20125;-72
2023/02/12 01:09:55;;;;;;;6.97;3.35;;;;;;;;;;5021627;28;20049;-73
2023/02/12 01:12:21;;;;;;;8.18;3.78;;;;;;;;;;5019455;28;20046;-73
2023/02/12 01:14:46;;;;;;;16.23;4.50;;;;;;;;;;5017771;28;20145;-73
2023/02/12 01:17:11;;;;;;;10.82;3.97;;;;;;;;;;5025688;28;20040;-73
2023/02/12 01:19:37;;;;;;;10.98;4.00;;;;;;;;;;5028168;28;20056;-72
2023/02/12 01:22:02;;;;;;;10.40;3.60;;;;;;;;;;5034349;28;20044;-73
2023/02/12 01:24:27;;;;;;;7.53;3.72;;;;;;;;;;5014477;28;20482;-76
2023/02/12 01:26:53;;;;;;;8.40;4.00;;;;;;;;;;5015140;28;20038;-73
2023/02/12 01:29:18;;;;;;;14.15;3.90;;;;;;;;;;5029870;28;20411;-73
2023/02/12 01:31:44;;;;;;;8.95;3.45;;;;;;;;;;5035892;28;20036;-73
2023/02/12 01:34:10;;;;;;;7.82;3.63;;;;;;;;;;5020622;28;20168;-72
2023/02/12 01:36:35;;;;;;;10.38;3.45;;;;;;;;;;5028833;28;20042;-72
2023/02/12 01:39:02;;;;;;;6.13;3.50;;;;;;;;;;5024306;28;20037;-73
2023/02/12 01:41:34;;;;;;;7.88;3.58;;;;;;;;;;5046499;28;20041;-72
2023/02/12 01:44:19;;;;;;;11.50;4.20;;;;;;;;;;5029904;28;20044;-73
2023/02/12 01:46:47;;;;;;;7.60;3.42;;;;;;;;;;5020743;28;20049;-72
2023/02/12 01:49:28;;;;;;;7.65;3.63;;;;;;;;;;5026446;28;20045;-72
2023/02/12 01:52:01;;;;;;;9.35;3.50;;;;;;;;;;5030228;28;20171;-73
2023/02/12 01:54:27;;;;;;;7.68;3.53;;;;;;;;;;5041239;28;20091;-73
2023/02/12 01:56:53;;;;;;;6.65;3.75;;;;;;;;;;5024926;28;20481;-72
2023/02/12 01:59:19;;;;;;;12.65;4.00;;;;;;;;;;5021290;28;20040;-72
2023/02/12 02:01:44;;;;;;;9.18;3.58;;;;;;;;;;5027527;28;20668;-73
2023/02/12 02:04:16;;;;;;;12.05;4.05;;;;;;;;;;5017369;28;20120;-73
2023/02/12 02:06:48;;;;;;;8.70;3.95;;;;;;;;;;5036110;28;20045;-73
2023/02/12 02:09:13;;;;;;;9.70;3.75;;;;;;;;;;5022150;28;20485;-72
2023/02/12 02:14:31;;;;;;;10.20;3.92;;;;;;;;;;5023299;28;20036;-73
2023/02/12 02:17:47;;;;;;;11.55;3.70;;;;;;;;;;5012324;28;20394;-74
2023/02/12 02:20:48;;;;;;;7.30;2.92;;;;;;;;;;5011012;28;20501;-73
2023/02/12 02:23:34;;;;;;;7.68;3.63;;;;;;;;;;5011263;28;20363;-73
2023/02/12 02:26:18;;;;;;;6.05;3.22;;;;;;;;;;5024600;28;20041;-73
2023/02/12 02:29:20;;;;;;;5.93;3.08;;;;;;;;;;5021292;28;20072;-73
2023/02/12 02:31:56;;;;;;;7.43;3.50;;;;;;;;;;5023644;28;20033;-73
2023/02/12 02:34:34;;;;;;;7.03;2.95;;;;;;;;;;5015506;28;20056;-72
2023/02/12 02:37:10;;;;;;;7.70;3.08;;;;;;;;;;5015653;28;20026;-72
2023/02/12 02:39:37;;;;;;;7.00;2.65;;;;;;;;;;5022565;28;20394;-72
2023/02/12 02:42:15;;;;;;;10.00;3.17;;;;;;;;;;5022867;28;20033;-73
2023/02/12 02:44:56;;;;;;;8.60;3.92;;;;;;;;;;5019002;28;20050;-72
2023/02/12 02:48:01;;;;;;;6.93;3.38;;;;;;;;;;5020011;28;20363;-73
2023/02/12 02:50:28;;;;;;;12.93;3.05;;;;;;;;;;5019412;28;20037;-73
2023/02/12 02:53:11;;;;;;;8.60;3.17;;;;;;;;;;5031767;28;20053;-72
2023/02/12 02:55:45;;;;;;;11.35;4.35;;;;;;;;;;5013847;28;20508;-72
2023/02/12 02:58:17;;;;;;;14.57;4.25;;;;;;;;;;5047962;28;20041;-73
2023/02/12 03:00:59;;;;;;;9.38;4.07;;;;;;;;;;5006484;28;20469;-72
2023/02/12 03:03:53;;;;;;;14.20;4.00;;;;;;;;;;5021060;28;20476;-72
2023/02/12 03:06:45;;;;;;;5.68;3.28;;;;;;;;;;5023970;28;20041;-72
2023/02/12 03:09:26;;;;;;;10.02;3.88;;;;;;;;;;5029392;28;20389;-73
2023/02/12 03:11:54;;;;;;;11.32;4.72;;;;;;;;;;5017692;28;20045;-73
2023/02/12 03:14:23;;;;;;;8.93;3.85;;;;;;;;;;5012063;28;20033;-72
2023/02/12 03:16:55;;;;;;;12.43;4.55;;;;;;;;;;5025446;28;20091;-73
2023/02/12 03:19:35;;;;;;;9.85;4.05;;;;;;;;;;5027340;28;20084;-72
2023/02/12 03:22:11;;;;;;;7.75;3.42;;;;;;;;;;5012781;28;20089;-72
2023/02/12 03:24:59;;;;;;;12.65;4.07;;;;;;;;;;5017347;28;20088;-72
2023/02/12 03:27:33;;;;;;;9.95;3.72;;;;;;;;;;5034998;28;20065;-73
2023/02/12 03:30:00;;;;;;;8.65;3.65;;;;;;;;;;5037991;28;20034;-72
2023/02/12 03:32:34;;;;;;;8.60;3.67;;;;;;;;;;5020828;28;20056;-72
2023/02/12 03:35:08;;;;;;;9.30;3.65;;;;;;;;;;5018721;28;20060;-73
2023/02/12 03:37:36;;;;;;;11.13;3.70;;;;;;;;;;5019880;28;20493;-72
2023/02/12 03:40:21;;;;;;;8.18;3.22;;;;;;;;;;5016081;28;20061;-73
2023/02/12 03:43:00;;;;;;;6.25;3.03;;;;;;;;;;5021427;28;20045;-73
2023/02/12 03:45:41;;;;;;;8.07;3.28;;;;;;;;;;5029296;28;20048;-72
2023/02/12 03:48:21;;;;;;;6.68;3.08;;;;;;;;;;5026800;28;20038;-73
2023/02/12 03:50:58;;;;;;;9.77;3.17;;;;;;;;;;5020288;28;20048;-73
2023/02/12 03:53:25;;;;;;;11.98;2.92;;;;;;;;;;5018016;28;20689;-72
2023/02/12 03:55:55;;;;;;;5.30;2.58;;;;;;;;;;5023180;28;20037;-73
2023/02/12 03:58:22;;;;;;;7.55;2.80;;;;;;;;;;5022318;28;20041;-73
2023/02/12 04:00:48;;;;;;;7.47;3.05;;;;;;;;;;5021424;28;20041;-72
2023/02/12 04:03:13;;;;;;;6.40;2.92;;;;;;;;;;5024022;28;20041;-73
2023/02/12 04:05:39;;;;;;;8.52;2.72;;;;;;;;;;5015194;28;20042;-72
2023/02/12 04:08:07;;;;;;;6.97;2.80;;;;;;;;;;5015299;28;20057;-72
2023/02/12 04:10:54;;;;;;;5.95;2.67;;;;;;;;;;5019625;28;20042;-73
2023/02/12 04:13:35;;;;;;;5.32;2.58;;;;;;;;;;5013866;28;20433;-72
2023/02/12 04:16:11;;;;;;;6.70;2.65;;;;;;;;;;5026113;28;20030;-72
2023/02/12 04:18:40;;;;;;;10.52;3.10;;;;;;;;;;5015987;28;20041;-73
2023/02/12 04:21:09;;;;;;;6.18;2.58;;;;;;;;;;5018347;28;20041;-73
2023/02/12 04:23:41;;;;;;;7.65;3.00;;;;;;;;;;5014771;28;20065;-72
2023/02/12 04:26:09;;;;;;;4.75;2.33;;;;;;;;;;5023624;28;20037;-72
2023/02/12 04:28:53;;;;;;;6.65;2.83;;;;;;;;;;5031525;28;20030;-72
2023/02/12 04:31:38;;;;;;;;;;;;;;;;;;5022447;28;20497;-73
2023/02/12 04:34:07;;;;;;;4.32;2.60;;;;;;;;;;5009264;28;19924;-73
2023/02/12 04:36:36;;;;;;;5.43;2.75;;;;;;;;;;5025727;28;20045;-72
2023/02/12 04:39:09;;;;;;;5.22;2.50;;;;;;;;;;5041496;28;20049;-72
2023/02/12 04:41:36;;;;;;;6.32;2.70;;;;;;;;;;5016519;28;20041;-72
2023/02/12 04:44:21;;;;;;;8.98;2.67;;;;;;;;;;5022001;28;20064;-72
2023/02/12 04:46:47;;;;;;;7.97;2.60;;;;;;;;;;5005213;28;20042;-73
2023/02/12 04:49:17;;;;;;;7.50;3.17;;;;;;;;;;5019536;28;20120;-74
2023/02/12 04:51:43;;;;;;;7.65;3.35;;;;;;;;;;5025486;28;20034;-72
2023/02/12 04:54:09;;;;;;;7.68;2.85;;;;;;;;;;5019970;28;20056;-73
2023/02/12 04:56:34;;;;;;;8.68;3.10;;;;;;;;;;5017565;28;20041;-72
2023/02/12 04:59:00;;;;;;;6.50;2.63;;;;;;;;;;5018755;28;20470;-72
2023/02/12 05:01:25;;;;;;;8.35;3.13;;;;;;;;;;5015456;28;20030;-72
2023/02/12 05:03:51;;;;;;;6.85;3.03;;;;;;;;;;5026590;28;20068;-73
2023/02/12 05:06:17;;;;;;;9.73;3.30;;;;;;;;;;5022296;28;20040;-72
2023/02/12 05:08:42;;;;;;;6.28;2.90;;;;;;;;;;5018741;28;20112;-73
2023/02/12 05:11:09;;;;;;;6.25;2.83;;;;;;;;;;5014034;28;20042;-73
2023/02/12 05:13:35;;;;;;;7.80;3.17;;;;;;;;;;5017537;28;20037;-73
2023/02/12 05:16:05;;;;;;;4.63;2.28;;;;;;;;;;5014867;28;20034;-72
2023/02/12 05:18:31;;;;;;;7.13;3.63;;;;;;;;;;5018729;28;20044;-72
2023/02/12 05:20:58;;;;;;;7.03;3.20;;;;;;;;;;5013120;28;20030;-72
2023/02/12 05:23:27;;;;;;;9.52;3.50;;;;;;;;;;5016456;28;20038;-73
2023/02/12 05:25:53;;;;;;;6.70;2.97;;;;;;;;;;5024737;28;20096;-73
2023/02/12 05:28:19;;;;;;;5.68;2.78;;;;;;;;;;5030854;28;20025;-73
2023/02/12 05:30:44;;;;;;;8.77;3.15;;;;;;;;;;5000630;28;20049;-73
2023/02/12 05:33:09;;;;;;;7.10;3.55;;;;;;;;;;5025873;28;20540;-73
2023/02/12 05:35:35;;;;;;;8.35;3.10;;;;;;;;;;5025171;28;20061;-72
2023/02/12 05:38:00;;;;;;;6.43;2.95;;;;;;;;;;5014880;28;20481;-72
2023/02/12 05:40:26;;;;;;;7.07;3.70;;;;;;;;;;5014974;28;20045;-73
2023/02/12 05:42:51;;;;;;;8.80;3.97;;;;;;;;;;5031592;28;20029;-72
2023/02/12 05:45:16;;;;;;;6.60;2.70;;;;;;;;;;5019338;28;20125;-73
2023/02/12 05:47:42;;;;;;;9.57;3.47;;;;;;;;;;5014651;28;20034;-73
2023/02/12 05:50:07;;;;;;;10.25;4.10;;;;;;;;;;5017146;28;20065;-73
2023/02/12 05:52:33;;;;;;;6.65;3.20;;;;;;;;;;5016425;28;20394;-73
2023/02/12 05:54:58;;;;;;;6.10;3.40;;;;;;;;;;5017522;28;20041;-72
2023/02/12 05:57:24;;;;;;;8.60;3.80;;;;;;;;;;5023821;28;20026;-72
2023/02/12 05:59:49;;;;;;;6.15;3.03;;;;;;;;;;5021177;28;20048;-73
2023/02/12 06:02:14;;;;;;;6.97;3.10;;;;;;;;;;5025582;28;20044;-73
2023/02/12 06:04:40;;;;;;;7.38;3.20;;;;;;;;;;5022743;28;20117;-72
2023/02/12 06:07:06;;;;;;;8.95;3.38;;;;;;;;;;5035381;28;20044;-73
2023/02/12 06:09:32;;;;;;;6.68;3.30;;;;;;;;;;5026535;28;20034;-72
2023/02/12 06:11:57;;;;;;;10.20;3.13;;;;;;;;;;5032179;28;20025;-73
2023/02/12 06:14:23;;;;;;;6.15;3.00;;;;;;;;;;5030110;28;20562;-72
2023/02/12 06:16:50;;;;;;;8.05;3.30;;;;;;;;;;5023896;28;20033;-74
2023/02/12 06:19:16;;;;;;;5.82;2.97;;;;;;;;;;5025301;28;20036;-73
2023/02/12 06:21:41;;;;;;;7.38;3.15;;;;;;;;;;5026449;28;20049;-72
2023/02/12 06:24:07;;;;;;;6.28;3.15;;;;;;;;;;5029269;28;20044;-73
2023/02/12 06:26:33;;;;;;;5.25;3.00;;;;;;;;;;5014606;28;20448;-73
2023/02/12 06:28:58;;;;;;;9.57;3.03;;;;;;;;;;5015994;28;20033;-72
2023/02/12 06:31:28;;;;;;;7.85;2.90;;;;;;;;;;5014519;28;20440;-72
2023/02/12 06:33:55;;;;;;;8.52;3.58;;;;;;;;;;5019023;28;20037;-73
2023/02/12 06:36:20;;;;;;;9.25;3.03;;;;;;;;;;5014556;28;20132;-72
2023/02/12 06:38:46;;;;;;;6.93;2.97;;;;;;;;;;5029959;28;20109;-73
2023/02/12 06:41:12;;;;;;;6.13;2.88;;;;;;;;;;5028446;28;20033;-73
2023/02/12 06:43:37;;;;;;;5.82;2.95;;;;;;;;;;5025899;28;20045;-72
2023/02/12 06:46:04;;;;;;;7.65;3.13;;;;;;;;;;5023131;28;20494;-72
2023/02/12 06:48:29;;;;;;;6.18;2.80;;;;;;;;;;5026581;28;20035;-72
2023/02/12 06:50:55;;;;;;;4.45;2.42;;;;;;;;;;5029655;28;20108;-73
2023/02/12 06:53:20;;;;;;;7.70;3.10;;;;;;;;;;5021584;28;20125;-73
2023/02/12 06:55:45;;;;;;;7.13;2.78;;;;;;;;;;5016278;28;20042;-72
2023/02/12 06:58:11;;;;;;;7.93;3.10;;;;;;;;;;5026132;28;20046;-72
2023/02/12 07:00:36;;;;;;;10.38;3.00;;;;;;;;;;5018746;28;20089;-73
2023/02/12 07:03:02;;;;;;;7.03;2.60;;;;;;;;;;5029748;28;20033;-72
2023/02/12 07:05:27;;;;;;;6.45;2.60;;;;;;;;;;5018246;28;20065;-72
2023/02/12 07:07:52;;;;;;;6.55;2.95;;;;;;;;;;5022960;28;20033;-72
2023/02/12 07:10:18;;;;;;;5.28;2.42;;;;;;;;;;5018329;28;20026;-73
2023/02/12 07:12:44;;;;;;;6.63;2.55;;;;;;;;;;5030424;28;20473;-72
2023/02/12 07:15:09;;;;;;;5.97;2.38;;;;;;;;;;5025537;28;20041;-73
2023/02/12 07:17:35;;;;;;;7.78;2.70;;;;;;;;;;5019731;28;20038;-72
2023/02/12 07:20:00;;;;;;;5.80;2.47;;;;;;;;;;5020348;28;20042;-72
2023/02/12 07:22:26;;;;;;;6.25;2.53;;;;;;;;;;5025418;28;20044;-72
2023/02/12 07:24:51;;;;;;;5.25;2.45;;;;;;;;;;5025224;28;20030;-73
2023/02/12 07:27:16;;;;;;;4.10;2.05;;;;;;;;;;5033062;28;20048;-75
2023/02/12 07:29:42;;;;;;;4.13;2.22;;;;;;;;;;5023866;28;20046;-72
2023/02/12 07:32:07;;;;;;;8.75;2.67;;;;;;;;;;5024486;28;20115;-73
2023/02/12 07:34:32;;;;;;;4.25;1.90;;;;;;;;;;5020868;28;20396;-73
2023/02/12 07:36:58;;;;;;;11.15;2.45;;;;;;;;;;5023370;28;20501;-73
2023/02/12 07:39:23;;;;;;;5.68;2.30;;;;;;;;;;5031527;28;20037;-72
2023/02/12 07:41:49;;;;;;;7.50;2.25;;;;;;;;;;5024200;28;20119;-73
2023/02/12 07:44:14;;;;;;;5.07;2.38;;;;;;;;;;5024257;28;20037;-72
2023/02/12 07:46:45;;;;;;;5.65;2.53;;;;;;;;;;5024915;28;20033;-72
2023/02/12 07:49:13;;;;;;;4.32;2.05;;;;;;;;;;5021122;28;20033;-73
2023/02/12 07:51:38;;;;;;;6.18;2.42;;;;;;;;;;5020108;28;20072;-73
2023/02/12 07:54:04;;;;;;;6.13;2.20;;;;;;;;;;5019853;28;20073;-73
2023/02/12 07:56:33;;;;;;;4.80;2.28;;;;;;;;;;5014022;28;20037;-73
2023/02/12 07:59:01;;;;;;;5.50;2.20;;;;;;;;;;5009766;28;20042;-73
2023/02/12 08:01:29;;;;;;;5.13;2.20;;;;;;;;;;5020522;28;20030;-73
2023/02/12 08:04:00;;;;;;;8.23;2.13;;;;;;;;;;5029344;28;20537;-72
2023/02/12 08:06:28;;;;;;;4.57;2.10;;;;;;;;;;5018340;28;20062;-72
2023/02/12 08:08:55;;;;;;;4.68;2.25;;;;;;;;;;5021361;28;20026;-73
2023/02/12 08:11:22;;;;;;;4.22;2.22;;;;;;;;;;5019015;28;20590;-73
2023/02/12 08:13:48;;;;;;;6.32;1.90;;;;;;;;;;5034035;28;20069;-73
2023/02/12 08:16:17;;;;;;;4.00;1.88;;;;;;;;;;5019810;28;20033;-72
2023/02/12 08:18:43;;;;;;;4.30;1.77;;;;;;;;;;5027204;28;20121;-73
2023/02/12 08:21:20;;;;;;;5.55;1.92;;;;;;;;;;5025208;28;20083;-72
2023/02/12 08:23:48;;;;;;;4.40;2.03;;;;;;;;;;5025748;28;20044;-72
2023/02/12 08:26:17;;;;;;;6.38;1.80;;;;;;;;;;5026991;28;20469;-72
2023/02/12 08:28:45;;;;;;;4.10;2.08;;;;;;;;;;5032429;28;20037;-72
2023/02/12 08:31:14;;;;;;;6.45;2.00;;;;;;;;;;5013233;28;20486;-72
2023/02/12 08:33:39;;;;;;;4.03;1.85;;;;;;;;;;5024895;28;20441;-73
2023/02/12 08:36:06;;;;;;;3.53;1.83;;;;;;;;;;5020473;28;20092;-73
2023/02/12 08:38:32;;;;;;;7.30;2.05;;;;;;;;;;5022862;28;20030;-72
2023/02/12 08:41:12;;;;;;;12.98;6.50;;;;;;;;;;5026688;28;20477;-73
2023/02/12 08:43:39;;;;;;;14.98;7.63;;;;;;;;;;5027098;28;20037;-72
2023/02/12 08:46:12;;;;;;;20.05;9.05;;;;;;;;;;5036522;28;20049;-72
2023/02/12 08:48:39;;;;;;;28.88;12.45;;;;;;;;;;5018348;28;20045;-72
2023/02/12 08:51:10;;;;;;;23.45;12.18;;;;;;;;;;5018572;28;20038;-72
2023/02/12 08:53:36;;;;;;;25.65;11.02;;;;;;;;;;5009523;28;20406;-72
2023/02/12 08:56:01;;;;;;;24.48;10.57;;;;;;;;;;5026266;28;20038;-73
2023/02/12 08:58:27;;;;;;;24.77;10.40;;;;;;;;;;5015884;28;20030;-73
2023/02/12 09:00:52;;;;;;;25.17;10.32;;;;;;;;;;5020749;28;20487;-73
2023/02/12 09:03:17;;;;;;;23.08;10.38;;;;;;;;;;5027103;28;20038;-73
2023/02/12 09:05:43;;;;;;;21.98;9.57;;;;;;;;;;5021429;28;20488;-73
2023/02/12 09:08:09;;;;;;;13.23;6.63;;;;;;;;;;5021900;28;20029;-73
2023/02/12 09:10:39;;;;;;;8.68;4.07;;;;;;;;;;5021328;28;20030;-72
2023/02/12 09:13:05;;;;;;;14.52;6.32;;;;;;;;;;5016770;28;20064;-72
2023/02/12 09:15:31;;;;;;;12.57;5.20;;;;;;;;;;5022375;28;20393;-72
2023/02/12 09:17:56;;;;;;;9.43;4.25;;;;;;;;;;5015603;28;20042;-73
2023/02/12 09:20:22;;;;;;;12.98;4.80;;;;;;;;;;5020964;28;20030;-73
2023/02/12 09:22:47;;;;;;;9.38;4.55;;;;;;;;;;5020827;28;20482;-73
2023/02/12 09:25:13;;;;;;;9.98;4.45;;;;;;;;;;5012957;28;20042;-74
2023/02/12 09:27:38;;;;;;;6.22;3.17;;;;;;;;;;5015123;28;20108;-72
2023/02/12 09:30:04;;;;;;;11.35;4.50;;;;;;;;;;5019566;28;20051;-73
2023/02/12 09:32:29;;;;;;;11.00;4.90;;;;;;;;;;5018725;28;20030;-73
2023/02/12 09:34:55;;;;;;;9.60;4.10;;;;;;;;;;5021962;28;20026;-73
2023/02/12 09:37:20;;;;;;;7.95;3.35;;;;;;;;;;5020906;28;20462;-73
2023/02/12 09:39:45;;;;;;;12.25;4.28;;;;;;;;;;5021703;28;20038;-73
2023/02/12 09:42:11;;;;;;;8.90;3.55;;;;;;;;;;5016961;28;20530;-73
2023/02/12 09:45:18;;;;;;;11.63;4.20;;;;;;;;;;5017126;28;20038;-72
2023/02/12 09:48:05;;;;;;;11.65;4.32;;;;;;;;;;5025638;28;20085;-72
2023/02/12 09:50:39;;;;;;;10.10;3.53;;;;;;;;;;5028104;28;20520;-73
2023/02/12 09:53:05;;;;;;;10.85;5.63;;;;;;;;;;5010792;28;20046;-73
2023/02/12 09:55:32;;;;;;;8.93;4.57;;;;;;;;;;5024477;28;20053;-72
2023/02/12 09:58:00;;;;;;;9.57;4.75;;;;;;;;;;5019044;28;20046;-73
2023/02/12 10:00:32;;;;;;;10.52;5.93;;;;;;;;;;5049122;28;20038;-73
2023/02/12 10:03:03;;;;;;;12.73;6.55;;;;;;;;;;5031393;28;20124;-73
2023/02/12 10:05:40;;;;;;;15.43;6.93;;;;;;;;;;5033473;28;20500;-73
2023/02/12 10:08:14;;;;;;;12.05;5.65;;;;;;;;;;5024862;28;20501;-72
2023/02/12 10:11:18;;;;;;;7.75;4.60;;;;;;;;;;5028475;28;20497;-72
2023/02/12 10:13:44;;;;;;;10.10;4.65;;;;;;;;;;5014671;28;20049;-72
2023/02/12 10:16:51;;;;;;;11.02;6.03;;;;;;;;;;5020998;28;20394;-73
2023/02/12 10:19:16;;;;;;;8.30;4.88;;;;;;;;;;4993599;28;20077;-72
2023/02/12 10:22:02;;;;;;;9.60;5.03;;;;;;;;;;5026211;28;20091;-73
2023/02/12 10:24:36;;;;;;;7.07;4.10;;;;;;;;;;5024995;28;20378;-73
2023/02/12 10:27:11;;;;;;;7.72;4.53;;;;;;;;;;5027279;28;20121;-72
2023/02/12 10:29:41;;;;;;;11.50;6.15;;;;;;;;;;5021546;28;20042;-72
2023/02/12 10:32:11;;;;;;;6.40;4.40;;;;;;;;;;5026530;28;20030;-72
2023/02/12 10:34:37;;;;;;;6.28;3.83;;;;;;;;;;5027408;28;20045;-72
2023/02/12 10:37:08;;;;;;;5.80;3.55;;;;;;;;;;5027521;28;20124;-72
2023/02/12 10:39:44;;;;;;;5.78;3.40;;;;;;;;;;5016887;28;20041;-72
2023/02/12 10:42:20;;;;;;;8.48;3.78;;;;;;;;;;5026537;28;20030;-73
2023/02/12 10:44:46;;;;;;;6.97;3.50;;;;;;;;;;5026639;28;20091;-73
2023/02/12 10:47:20;;;;;;;11.02;4.65;;;;;;;;;;5021951;28;20057;-72
2023/02/12 10:49:51;;;;;;;10.98;4.35;;;;;;;;;;5042979;28;20045;-73
2023/02/12 10:52:23;;;;;;;7.50;3.90;;;;;;;;;;5033315;28;20465;-72
2023/02/12 10:54:49;;;;;;;7.95;4.47;;;;;;;;;;5021927;28;20037;-73
2023/02/12 10:57:29;;;;;;;13.75;6.38;;;;;;;;;;5028486;28;20436;-73
2023/02/12 10:59:56;;;;;;;10.00;4.75;;;;;;;;;;5031297;28;20529;-72
2023/02/12 11:02:33;;;;;;;11.95;5.10;;;;;;;;;;5022102;28;20030;-73
2023/02/12 11:05:00;;;;;;;9.13;4.47;;;;;;;;;;5015581;28;20398;-73
2023/02/12 11:07:26;;;;;;;9.68;5.28;;;;;;;;;;5012638;28;20117;-73
2023/02/12 11:09:54;;;;;;;7.38;4.57;;;;;;;;;;5030382;28;20092;-73
2023/02/12 11:12:36;;;;;;;7.15;4.50;;;;;;;;;;5020161;28;20512;-72
2023/02/12 11:15:19;;;;;;;9.95;5.05;;;;;;;;;;5027790;28;20053;-73
2023/02/12 11:17:55;;;;;;;16.63;5.70;;;;;;;;;;5030619;28;20095;-72
2023/02/12 11:20:26;;;;;;;7.20;5.00;;;;;;;;;;5019493;28;20033;-72
2023/02/12 11:22:58;;;;;;;7.30;4.30;;;;;;;;;;5035613;28;20045;-73
2023/02/12 11:25:26;;;;;;;11.25;5.80;;;;;;;;;;5016105;28;20117;-72
2023/02/12 11:28:17;;;;;;;7.15;4.85;;;;;;;;;;5024231;28;20038;-72
2023/02/12 11:30:58;;;;;;;8.90;4.75;;;;;;;;;;5021196;28;20390;-72
2023/02/12 11:33:34;;;;;;;10.63;4.85;;;;;;;;;;5015245;28;20044;-73
2023/02/12 11:36:12;;;;;;;6.15;3.78;;;;;;;;;;5049270;28;20167;-73
2023/02/12 11:38:46;;;;;;;8.30;4.85;;;;;;;;;;5002655;28;20041;-73
2023/02/12 11:41:27;;;;;;;13.00;5.63;;;;;;;;;;5015167;28;20034;-73
2023/02/12 11:43:52;;;;;;;13.02;4.15;;;;;;;;;;5020891;28;20041;-73
2023/02/12 11:46:20;;;;;;;7.53;3.88;;;;;;;;;;5018546;28;20030;-73
2023/02/12 11:48:46;;;;;;;8.43;5.10;;;;;;;;;;5014371;28;20464;-73
2023/02/12 11:51:21;;;;;;;6.28;3.20;;;;;;;;;;5018855;28;20116;-73
2023/02/12 11:53:49;;;;;;;11.27;4.97;;;;;;;;;;5024085;28;20060;-73
2023/02/12 11:56:15;;;;;;;9.30;4.55;;;;;;;;;;5029476;28;20120;-72
2023/02/12 11:58:40;;;;;;;6.68;3.97;;;;;;;;;;5024211;28;20120;-73
2023/02/12 12:01:27;;;;;;;9.88;5.20;;;;;;;;;;5022679;28;20029;-73
2023/02/12 12:04:10;;;;;;;7.28;4.05;;;;;;;;;;5019550;28;20402;-73
2023/02/12 12:06:52;;;;;;;4.47;3.33;;;;;;;;;;5015006;28;20034;-73
2023/02/12 12:09:25;;;;;;;12.55;3.80;;;;;;;;;;5019713;28;20124;-73
2023/02/12 12:11:57;;;;;;;8.07;3.42;;;;;;;;;;5021594;28;20033;-73
2023/02/12 12:14:26;;;;;;;5.35;3.60;;;;;;;;;;5014571;28;20084;-72
2023/02/12 12:19:51;;;;;;;6.93;3.33;;;;;;;;;;5022890;28;20429;-72
2023/02/12 12:22:41;;;;;;;6.50;3.60;;;;;;;;;;5026563;28;20037;-73
2023/02/12 12:25:15;;;;;;;5.18;3.42;;;;;;;;;;5021060;28;20076;-73
2023/02/12 12:28:05;;;;;;;7.53;3.88;;;;;;;;;;5023102;28;20025;-73
2023/02/12 12:30:49;;;;;;;7.97;3.95;;;;;;;;;;5006144;28;20116;-73
2023/02/12 12:33:36;;;;;;;6.45;3.38;;;;;;;;;;5017617;28;20128;-72
2023/02/12 12:36:22;;;;;;;7.63;3.65;;;;;;;;;;5017004;28;20440;-73
2023/02/12 12:39:18;;;;;;;10.80;4.15;;;;;;;;;;5014619;28;20039;-73
2023/02/12 12:42:19;;;;;;;8.75;4.15;;;;;;;;;;5022644;28;20045;-72
2023/02/12 12:44:56;;;;;;;7.60;4.38;;;;;;;;;;5005319;28;20117;-73
2023/02/12 12:47:53;;;;;;;9.75;4.93;;;;;;;;;;5018532;28;20069;-72
2023/02/12 12:50:34;;;;;;;11.02;4.47;;;;;;;;;;5027926;28;20107;-72
2023/02/12 12:52:59;;;;;;;6.28;3.80;;;;;;;;;;5018865;28;20046;-73
2023/02/12 12:55:37;;;;;;;6.18;4.10;;;;;;;;;;5026952;28;20090;-72
2023/02/12 12:58:11;;;;;;;6.15;3.17;;;;;;;;;;5009831;28;20120;-73
2023/02/12 13:00:46;;;;;;;8.35;4.15;;;;;;;;;;5021484;28;20034;-72
2023/02/12 13:03:40;;;;;;;8.27;4.07;;;;;;;;;;5020254;28;20045;-72
2023/02/12 13:06:42;;;;;;;7.05;4.10;;;;;;;;;;5018737;28;20375;-72
2023/02/12 13:09:23;;;;;;;7.65;4.10;;;;;;;;;;5011073;28;20038;-73
2023/02/12 13:12:00;;;;;;;7.72;3.90;;;;;;;;;;5029302;28;20492;-73
2023/02/12 13:14:44;;;;;;;8.13;3.97;;;;;;;;;;5030964;28;20041;-73
2023/02/12 13:17:16;;;;;;;8.63;4.20;;;;;;;;;;5023069;28;20355;-73
2023/02/12 13:19:41;;;;;;;8.82;3.83;;;;;;;;;;5026069;28;20041;-72
2023/02/12 13:22:25;;;;;;;7.47;4.22;;;;;;;;;;5028064;28;20044;-73
2023/02/12 13:25:02;;;;;;;7.07;4.03;;;;;;;;;;5029773;28;20481;-73
2023/02/12 13:27:32;;;;;;;7.03;4.00;;;;;;;;;;5027582;28;20033;-74
2023/02/12 13:30:03;;;;;;;6.47;3.90;;;;;;;;;;5040205;28;20089;-73
2023/02/12 13:32:42;;;;;;;10.45;4.20;;;;;;;;;;5036779;28;20021;-73
2023/02/12 13:35:15;;;;;;;8.15;4.68;;;;;;;;;;5052214;28;20042;-72
2023/02/12 13:37:44;;;;;;;7.38;4.47;;;;;;;;;;5041871;28;20026;-73
2023/02/12 13:40:15;;;;;;;6.75;4.25;;;;;;;;;;5032671;28;20038;-73
2023/02/12 13:42:49;;;;;;;8.80;5.25;;;;;;;;;;5019643;28;20029;-73
2023/02/12 13:45:34;;;;;;;6.95;4.35;;;;;;;;;;5025449;28;20033;-72
2023/02/12 13:48:28;;;;;;;9.10;4.57;;;;;;;;;;5020854;28;20042;-73
2023/02/12 13:51:18;;;;;;;6.65;4.60;;;;;;;;;;5021890;28;20041;-72
2023/02/12 13:54:02;;;;;;;6.68;4.10;;;;;;;;;;5027850;28;20045;-72
2023/02/12 13:56:41;;;;;;;7.35;4.85;;;;;;;;;;5027398;28;20037;-73
2023/02/12 13:59:34;;;;;;;9.43;5.30;;;;;;;;;;5020319;28;20061;-73
2023/02/12 14:02:04;;;;;;;7.85;4.90;;;;;;;;;;5027561;28;20034;-72
2023/02/12 14:05:04;;;;;;;8.63;5.05;;;;;;;;;;5030523;28;20493;-73
2023/02/12 14:07:52;;;;;;;8.55;5.60;;;;;;;;;;4984034;28;20556;-73
2023/02/12 14:10:36;;;;;;;10.73;5.82;;;;;;;;;;5029369;28;20025;-73
2023/02/12 14:13:18;;;;;;;9.50;5.45;;;;;;;;;;5031119;28;20041;-72
2023/02/12 14:15:49;;;;;;;8.38;5.50;;;;;;;;;;5014903;28;20042;-73
2023/02/12 14:18:35;;;;;;;11.65;5.47;;;;;;;;;;5020151;28;20402;-73
2023/02/12 14:21:09;;;;;;;12.30;6.10;;;;;;;;;;5032739;28;20026;-72
2023/02/12 14:23:35;;;;;;;9.80;5.70;;;;;;;;;;5022712;28;20046;-72
2023/02/12 14:26:06;;;;;;;10.13;5.70;;;;;;;;;;5021154;28;20386;-73
2023/02/12 14:28:40;;;;;;;12.45;6.15;;;;;;;;;;5021132;28;20168;-73
2023/02/12 14:31:18;;;;;;;10.65;5.63;;;;;;;;;;5020615;28;20516;-73
2023/02/12 14:33:51;;;;;;;14.45;6.43;;;;;;;;;;5019418;28;20037;-72
2023/02/12 14:36:37;;;;;;;11.07;5.35;;;;;;;;;;5026192;28;20098;-72
2023/02/12 14:39:04;;;;;;;17.00;7.40;;;;;;;;;;5029194;28;20080;-73
2023/02/12 14:41:33;;;;;;;11.35;5.90;;;;;;;;;;5008973;28;20509;-74
2023/02/12 14:44:16;;;;;;;12.02;6.20;;;;;;;;;;5021103;28;20048;-73
2023/02/12 14:46:56;;;;;;;10.52;6.00;;;;;;;;;;5010255;28;20486;-72
2023/02/12 14:49:38;;;;;;;13.18;7.32;;;;;;;;;;5019139;28;20069;-72
2023/02/12 14:52:12;;;;;;;13.80;6.70;;;;;;;;;;5023136;28;20438;-72
2023/02/12 14:55:04;;;;;;;14.57;6.93;;;;;;;;;;5019219;28;20088;-73
2023/02/12 14:57:40;;;;;;;12.20;6.68;;;;;;;;;;5005004;28;20062;-74
2023/02/12 15:00:17;;;;;;;13.70;7.13;;;;;;;;;;5030690;28;20045;-73
2023/02/12 15:02:57;;;;;;;11.98;6.63;;;;;;;;;;5025890;28;20516;-73
2023/02/12 15:05:26;;;;;;;14.50;6.63;;;;;;;;;;5015528;28;20367;-73
2023/02/12 15:08:18;;;;;;;14.70;7.53;;;;;;;;;;5016881;28;20036;-72
2023/02/12 15:10:49;;;;;;;12.40;6.63;;;;;;;;;;5019399;28;20041;-72
2023/02/12 15:13:23;;;;;;;22.20;9.68;;;;;;;;;;5020410;28;20379;-73